createdAt,value
2018-11-21T00:00:05.424Z,1.40
2018-11-21T00:02:53.655Z,1.40
2018-11-21T00:05:35.000Z,1.40
2018-11-21T00:08:16.572Z,1.40
2018-11-21T00:10:57.595Z,1.40
2018-11-21T00:13:26.644Z,1.40
2018-11-21T00:15:55.702Z,1.40
2018-11-21T00:18:24.920Z,1.40
2018-11-21T00:20:53.845Z,1.40
2018-11-21T00:26:36.633Z,1.40
2018-11-21T00:29:17.692Z,1.30
2018-11-21T00:31:59.412Z,1.30
2018-11-21T00:34:40.825Z,1.30
2018-11-21T00:37:21.762Z,1.30
2018-11-21T00:40:02.763Z,1.20
2018-11-21T00:42:46.984Z,1.20
2018-11-21T00:45:25.757Z,1.20
2018-11-21T00:48:06.673Z,1.20
2018-11-21T00:50:47.641Z,1.20
2018-11-21T00:53:16.748Z,1.20
2018-11-21T00:56:14.675Z,1.20
2018-11-21T00:59:06.082Z,1.20
2018-11-21T01:01:54.488Z,1.10
2018-11-21T01:04:35.697Z,1.10
2018-11-21T01:07:16.718Z,1.10
2018-11-21T01:09:57.983Z,1.10
2018-11-21T01:12:38.873Z,1.10
2018-11-21T01:15:20.629Z,1.10
2018-11-21T01:17:49.828Z,1.10
2018-11-21T01:23:35.176Z,1.20
2018-11-21T01:26:16.781Z,1.20
2018-11-21T01:29:33.401Z,1.20
2018-11-21T01:32:02.388Z,1.20
2018-11-21T01:34:50.529Z,1.20
2018-11-21T01:37:38.566Z,1.10
2018-11-21T01:40:21.429Z,1.10
2018-11-21T01:43:03.054Z,1.10
2018-11-21T01:45:46.537Z,1.10
2018-11-21T01:48:27.124Z,1.00
2018-11-21T01:51:07.817Z,1.00
2018-11-21T01:53:52.023Z,1.00
2018-11-21T01:56:40.823Z,1.00
2018-11-21T01:59:18.504Z,0.90
2018-11-21T02:01:49.750Z,0.90
2018-11-21T02:04:37.978Z,1.00
2018-11-21T02:07:20.547Z,0.90
2018-11-21T02:09:52.502Z,0.90
2018-11-21T02:12:40.826Z,0.90
2018-11-21T02:15:21.648Z,0.90
2018-11-21T02:18:02.990Z,0.90
2018-11-21T02:20:44.427Z,0.90
2018-11-21T02:23:25.577Z,0.90
2018-11-21T02:26:06.249Z,0.90
2018-11-21T02:28:50.607Z,0.90
2018-11-21T02:31:31.428Z,0.90
2018-11-21T02:34:12.414Z,0.90
2018-11-21T02:36:53.153Z,0.90
2018-11-21T02:39:33.948Z,0.90
2018-11-21T02:42:14.712Z,0.90
2018-11-21T02:44:56.713Z,0.90
2018-11-21T02:47:40.178Z,0.90
2018-11-21T02:50:42.969Z,0.90
2018-11-21T02:53:31.232Z,0.90
2018-11-21T02:56:00.670Z,0.90
2018-11-21T02:58:48.892Z,0.90
2018-11-21T03:01:30.241Z,0.90
2018-11-21T03:04:12.267Z,0.80
2018-11-21T03:06:53.741Z,0.80
2018-11-21T03:09:34.476Z,0.80
2018-11-21T03:12:15.609Z,0.80
2018-11-21T03:14:56.541Z,0.80
2018-11-21T03:17:37.603Z,0.80
2018-11-21T03:20:18.616Z,0.80
2018-11-21T03:22:59.823Z,0.80
2018-11-21T03:25:29.951Z,0.90
2018-11-21T03:28:25.861Z,0.90
2018-11-21T03:31:07.248Z,0.90
2018-11-21T03:33:48.115Z,0.90
2018-11-21T03:36:29.103Z,0.90
2018-11-21T03:39:10.738Z,0.90
2018-11-21T03:41:52.077Z,0.80
2018-11-21T03:44:33.111Z,0.90
2018-11-21T03:47:13.979Z,0.80
2018-11-21T03:52:32.548Z,0.80
2018-11-21T03:55:21.107Z,0.80
2018-11-21T03:58:01.907Z,0.80
2018-11-21T04:00:42.593Z,0.70
2018-11-21T04:03:23.364Z,0.70
2018-11-21T04:06:04.266Z,0.70
2018-11-21T04:08:45.447Z,0.60
2018-11-21T04:11:26.511Z,0.50
2018-11-21T04:14:08.061Z,0.50
2018-11-21T04:16:47.797Z,0.50
2018-11-21T04:19:28.612Z,0.50
2018-11-21T04:22:09.463Z,0.40
2018-11-21T04:24:51.102Z,0.40
2018-11-21T04:27:31.584Z,0.40
2018-11-21T04:30:13.652Z,0.40
2018-11-21T04:32:55.047Z,0.50
2018-11-21T04:35:36.129Z,0.50
2018-11-21T04:38:17.005Z,0.50
2018-11-21T04:40:58.181Z,0.50
2018-11-21T04:43:27.602Z,0.40
2018-11-21T04:46:16.266Z,0.40
2018-11-21T04:48:57.064Z,0.40
2018-11-21T04:51:37.986Z,0.40
2018-11-21T04:54:19.441Z,0.50
2018-11-21T04:57:00.898Z,0.50
2018-11-21T04:59:42.276Z,0.60
2018-11-21T05:02:24.328Z,0.60
2018-11-21T05:04:53.501Z,0.60
2018-11-21T05:07:22.356Z,0.60
2018-11-21T05:09:51.291Z,0.60
2018-11-21T05:12:40.463Z,0.60
2018-11-21T05:15:28.941Z,0.60
2018-11-21T05:18:12.357Z,0.60
2018-11-21T05:20:53.208Z,0.60
2018-11-21T05:23:34.705Z,0.70
2018-11-21T05:26:15.792Z,0.70
2018-11-21T05:28:56.797Z,0.70
2018-11-21T05:31:25.883Z,0.70
2018-11-21T05:34:14.421Z,0.70
2018-11-21T05:36:55.003Z,0.70
2018-11-21T05:39:39.140Z,0.80
2018-11-21T05:42:20.039Z,0.70
2018-11-21T05:45:01.487Z,0.80
2018-11-21T05:47:43.308Z,0.70
2018-11-21T05:50:29.695Z,0.70
2018-11-21T05:53:11.176Z,0.70
2018-11-21T05:55:55.026Z,0.80
2018-11-21T05:58:35.926Z,0.80
2018-11-21T06:01:44.772Z,0.80
2018-11-21T06:04:26.112Z,0.70
2018-11-21T06:07:09.081Z,0.70
2018-11-21T06:09:50.382Z,0.60
2018-11-21T06:12:31.593Z,0.60
2018-11-21T06:15:01.374Z,0.60
2018-11-21T06:17:50.107Z,0.70
2018-11-21T06:20:31.296Z,0.60
2018-11-21T06:23:12.768Z,0.60
2018-11-21T06:25:53.439Z,0.60
2018-11-21T06:28:37.022Z,0.70
2018-11-21T06:31:19.447Z,0.60
2018-11-21T06:33:54.016Z,0.60
2018-11-21T06:36:42.523Z,0.60
2018-11-21T06:39:11.540Z,0.60
2018-11-21T06:41:59.930Z,0.60
2018-11-21T06:44:49.862Z,0.60
2018-11-21T06:47:29.467Z,0.50
2018-11-21T06:50:10.227Z,0.50
2018-11-21T06:52:51.379Z,0.50
2018-11-21T06:55:31.971Z,0.50
2018-11-21T06:58:13.410Z,0.50
2018-11-21T07:00:54.626Z,0.50
2018-11-21T07:03:23.631Z,0.50
2018-11-21T07:09:13.341Z,0.50
2018-11-21T07:11:58.345Z,0.60
2018-11-21T07:14:39.422Z,0.60
2018-11-21T07:17:21.050Z,0.60
2018-11-21T07:20:05.037Z,0.60
2018-11-21T07:22:44.277Z,0.60
2018-11-21T07:25:32.571Z,0.70
2018-11-21T07:28:15.550Z,0.70
2018-11-21T07:31:06.764Z,0.70
2018-11-21T07:33:47.997Z,0.70
2018-11-21T07:39:15.016Z,0.70
2018-11-21T07:41:56.235Z,0.70
2018-11-21T07:44:37.450Z,0.80
2018-11-21T07:50:41.512Z,0.80
2018-11-21T08:02:43.976Z,1.00
2018-11-21T08:05:31.122Z,1.00
2018-11-21T08:08:43.756Z,1.10
2018-11-21T08:12:11.102Z,1.10
2018-11-21T08:15:19.657Z,1.20
2018-11-21T08:18:18.110Z,1.30
2018-11-21T08:21:19.463Z,1.40
2018-11-21T08:27:00.831Z,1.50
2018-11-21T08:29:41.864Z,1.50
2018-11-21T08:32:22.987Z,1.60
2018-11-21T08:35:05.340Z,1.60
2018-11-21T08:37:46.677Z,1.70
2018-11-21T08:40:27.391Z,1.70
2018-11-21T08:43:08.325Z,1.70
2018-11-21T08:45:51.507Z,1.80
2018-11-21T08:48:32.891Z,1.80
2018-11-21T08:51:01.871Z,1.80
2018-11-21T08:53:50.631Z,1.90
2018-11-21T08:56:32.512Z,1.90
2018-11-21T08:59:12.696Z,2.00
2018-11-21T09:01:54.326Z,2.10
2018-11-21T09:04:36.084Z,2.10
2018-11-21T09:07:16.911Z,2.20
2018-11-21T09:09:59.586Z,2.20
2018-11-21T09:12:41.236Z,2.30
2018-11-21T09:15:23.030Z,2.30
2018-11-21T09:18:04.033Z,2.40
2018-11-21T09:20:45.241Z,2.40
2018-11-21T09:23:25.812Z,2.40
2018-11-21T09:26:06.905Z,2.50
2018-11-21T09:28:47.982Z,2.50
2018-11-21T09:31:29.392Z,2.60
2018-11-21T09:34:11.657Z,2.60
2018-11-21T09:36:52.642Z,2.60
2018-11-21T09:39:39.126Z,2.70
2018-11-21T09:42:20.102Z,2.70
2018-11-21T09:45:01.224Z,2.80
2018-11-21T09:47:45.336Z,2.80
2018-11-21T09:50:27.579Z,2.80
2018-11-21T09:52:56.969Z,2.90
2018-11-21T09:55:30.428Z,2.90
2018-11-21T09:58:01.048Z,3.00
2018-11-21T10:01:08.849Z,3.00
2018-11-21T10:03:41.647Z,3.00
2018-11-21T10:06:13.639Z,3.10
2018-11-21T10:08:58.605Z,3.10
2018-11-21T10:11:29.119Z,3.00
2018-11-21T10:13:58.043Z,3.10
2018-11-21T10:16:27.339Z,3.10
2018-11-21T10:19:05.295Z,3.10
2018-11-21T10:21:35.231Z,3.20
2018-11-21T10:24:23.448Z,3.20
2018-11-21T10:27:07.964Z,3.20
2018-11-21T10:29:51.591Z,3.30
2018-11-21T10:32:19.730Z,3.30
2018-11-21T10:37:59.096Z,3.50
2018-11-21T10:40:40.110Z,3.60
2018-11-21T10:43:09.774Z,3.60
2018-11-21T10:45:57.763Z,3.60
2018-11-21T10:48:39.270Z,3.60
2018-11-21T10:51:21.712Z,3.60
2018-11-21T10:53:53.291Z,3.60
2018-11-21T10:56:43.660Z,3.60
2018-11-21T10:59:12.549Z,3.60
2018-11-21T11:02:02.115Z,3.70
2018-11-21T11:04:51.775Z,3.70
2018-11-21T11:07:40.018Z,3.70
2018-11-21T11:10:39.777Z,3.80
2018-11-21T11:13:31.458Z,3.80
2018-11-21T11:16:38.760Z,3.70
2018-11-21T11:19:47.187Z,3.70
2018-11-21T11:22:35.701Z,3.70
2018-11-21T11:26:12.695Z,3.70
2018-11-21T11:29:13.162Z,3.70
2018-11-21T11:32:20.694Z,3.70
2018-11-21T11:35:47.419Z,3.70
2018-11-21T11:38:40.305Z,3.90
2018-11-21T11:41:40.656Z,3.90
2018-11-21T11:44:40.845Z,4.10
2018-11-21T11:47:29.018Z,4.20
2018-11-21T11:50:36.213Z,4.30
2018-11-21T11:53:35.832Z,4.40
2018-11-21T11:56:26.014Z,4.50
2018-11-21T11:59:35.193Z,4.60
2018-11-21T12:02:42.759Z,4.70
2018-11-21T12:05:31.845Z,4.80
2018-11-21T12:08:29.600Z,4.90
2018-11-21T12:11:21.661Z,4.90
2018-11-21T12:14:31.350Z,5.00
2018-11-21T12:17:31.926Z,5.00
2018-11-21T12:20:20.800Z,5.00
2018-11-21T12:23:28.372Z,5.00
2018-11-21T12:26:29.228Z,5.00
2018-11-21T12:29:18.533Z,4.90
2018-11-21T12:32:45.310Z,4.90
2018-11-21T12:35:36.910Z,4.90
2018-11-21T12:39:03.374Z,4.90
2018-11-21T12:41:55.444Z,4.90
2018-11-21T12:48:09.950Z,4.90
2018-11-21T12:51:25.340Z,4.90
2018-11-21T12:54:31.638Z,4.80
2018-11-21T12:57:32.380Z,4.80
2018-11-21T13:00:32.210Z,4.80
2018-11-21T13:03:25.833Z,4.80
2018-11-21T13:06:26.239Z,4.70
2018-11-21T13:09:14.660Z,4.70
2018-11-21T13:15:19.206Z,4.80
2018-11-21T13:18:19.719Z,4.80
2018-11-21T13:21:27.384Z,4.80
2018-11-21T13:24:27.290Z,4.80
2018-11-21T13:27:21.899Z,4.80
2018-11-21T13:30:10.029Z,4.80
2018-11-21T13:33:21.425Z,4.70
2018-11-21T13:36:09.305Z,4.70
2018-11-21T13:39:16.804Z,4.70
2018-11-21T13:42:09.081Z,4.60
2018-11-21T13:45:17.715Z,4.60
2018-11-21T13:47:59.619Z,4.60
2018-11-21T13:51:26.015Z,4.60
2018-11-21T13:54:28.993Z,4.50
2018-11-21T13:57:10.150Z,4.50
2018-11-21T13:59:41.971Z,4.50
2018-11-21T14:02:30.040Z,4.50
2018-11-21T14:05:11.175Z,4.50
2018-11-21T14:07:52.483Z,4.50
2018-11-21T14:10:35.659Z,4.40
2018-11-21T14:13:16.570Z,4.40
2018-11-21T14:15:57.765Z,4.40
2018-11-21T14:18:29.492Z,4.30
2018-11-21T14:21:00.724Z,4.30
2018-11-21T14:23:49.394Z,4.30
2018-11-21T14:26:32.723Z,4.30
2018-11-21T14:29:21.090Z,4.20
2018-11-21T14:34:49.000Z,4.20
2018-11-21T14:37:30.475Z,4.20
2018-11-21T14:40:13.623Z,4.20
2018-11-21T14:42:56.652Z,4.10
2018-11-21T14:45:37.324Z,4.10
2018-11-21T14:48:18.527Z,4.10
2018-11-21T14:50:59.465Z,4.00
2018-11-21T14:53:42.973Z,4.00
2018-11-21T14:56:11.983Z,4.00
2018-11-21T14:58:41.309Z,4.00
2018-11-21T15:01:29.968Z,4.00
2018-11-21T15:06:56.903Z,4.00
2018-11-21T15:09:37.758Z,4.00
2018-11-21T15:12:22.941Z,3.90
2018-11-21T15:15:02.495Z,3.90
2018-11-21T15:17:32.555Z,3.90
2018-11-21T15:20:07.197Z,3.90
2018-11-21T15:22:35.823Z,3.90
2018-11-21T15:25:26.889Z,3.90
2018-11-21T15:28:15.115Z,3.90
2018-11-21T15:31:01.740Z,3.90
2018-11-21T15:33:48.598Z,3.90
2018-11-21T15:36:29.559Z,3.90
2018-11-21T15:39:00.940Z,3.80
2018-11-21T15:41:49.329Z,3.90
2018-11-21T15:44:33.144Z,3.90
2018-11-21T15:47:14.763Z,3.80
2018-11-21T15:49:45.976Z,3.80
2018-11-21T15:52:32.548Z,3.90
2018-11-21T15:55:16.918Z,3.90
2018-11-21T15:57:44.153Z,3.90
2018-11-21T16:00:18.879Z,3.90
2018-11-21T16:03:11.820Z,3.90
2018-11-21T16:06:09.710Z,3.90
2018-11-21T16:08:54.541Z,3.90
2018-11-21T16:11:33.850Z,3.90
2018-11-21T16:14:15.268Z,3.90
2018-11-21T16:16:57.260Z,3.90
2018-11-21T16:19:52.668Z,3.90
2018-11-21T16:22:37.953Z,3.90
2018-11-21T16:25:48.171Z,3.90
2018-11-21T16:28:53.770Z,3.90
2018-11-21T16:31:25.488Z,3.80
2018-11-21T16:33:59.092Z,3.80
2018-11-21T16:36:46.180Z,3.70
2018-11-21T16:39:31.758Z,3.70
2018-11-21T16:45:10.220Z,3.60
2018-11-21T16:48:20.006Z,3.60
2018-11-21T16:51:08.501Z,3.50
2018-11-21T16:53:49.420Z,3.50
2018-11-21T16:56:33.885Z,3.50
2018-11-21T16:59:15.413Z,3.40
2018-11-21T17:01:58.106Z,3.40
2018-11-21T17:04:39.404Z,3.40
2018-11-21T17:07:21.273Z,3.40
2018-11-21T17:10:02.414Z,3.40
2018-11-21T17:12:43.789Z,3.30
2018-11-21T17:15:17.430Z,3.30
2018-11-21T17:18:07.121Z,3.30
2018-11-21T17:20:48.118Z,3.30
2018-11-21T17:23:34.914Z,3.20
2018-11-21T17:26:05.433Z,3.20
2018-11-21T17:28:54.825Z,3.20
2018-11-21T17:31:47.374Z,3.20
2018-11-21T17:34:31.555Z,3.20
2018-11-21T17:37:10.738Z,3.10
2018-11-21T17:40:02.603Z,3.10
2018-11-21T17:42:43.693Z,3.10
2018-11-21T17:45:33.073Z,3.10
2018-11-21T17:48:16.319Z,3.00
2018-11-21T17:53:46.675Z,3.00
2018-11-21T17:56:18.977Z,3.00
2018-11-21T17:59:09.533Z,2.90
2018-11-21T18:01:53.705Z,2.90
2018-11-21T18:04:35.299Z,2.90
2018-11-21T18:07:16.309Z,2.90
2018-11-21T18:09:49.283Z,3.00
2018-11-21T18:12:37.980Z,3.00
2018-11-21T18:15:21.314Z,3.00
2018-11-21T18:18:02.209Z,3.10
2018-11-21T18:20:31.753Z,3.10
2018-11-21T18:23:20.058Z,3.20
2018-11-21T18:26:01.036Z,3.20
2018-11-21T18:28:43.712Z,3.30
2018-11-21T18:31:25.237Z,3.30
2018-11-21T18:34:06.971Z,3.30
2018-11-21T18:39:41.135Z,3.40
2018-11-21T18:42:32.644Z,3.40
2018-11-21T18:45:14.923Z,3.50
2018-11-21T18:48:10.279Z,3.50
2018-11-21T18:50:42.335Z,3.50
2018-11-21T18:53:11.067Z,3.50
2018-11-21T18:56:08.215Z,3.50
2018-11-21T18:59:08.322Z,3.50
2018-11-21T19:02:03.732Z,3.50
2018-11-21T19:04:42.532Z,3.50
2018-11-21T19:07:26.112Z,3.60
2018-11-21T19:12:51.362Z,3.60
2018-11-21T19:15:32.486Z,3.60
2018-11-21T19:18:24.676Z,3.60
2018-11-21T19:21:16.085Z,3.60
2018-11-21T19:24:01.248Z,3.60
2018-11-21T19:26:42.619Z,3.60
2018-11-21T19:29:56.937Z,3.60
2018-11-21T19:32:29.842Z,3.60
2018-11-21T19:35:10.374Z,3.60
2018-11-21T19:37:40.601Z,3.60
2018-11-21T19:40:48.358Z,3.60
2018-11-21T19:43:24.120Z,3.60
2018-11-21T19:46:13.619Z,3.70
2018-11-21T19:48:54.981Z,3.70
2018-11-21T19:51:36.407Z,3.70
2018-11-21T19:54:21.489Z,3.60
2018-11-21T19:57:02.488Z,3.60
2018-11-21T19:59:55.895Z,3.60
2018-11-21T20:02:37.104Z,3.60
2018-11-21T20:05:21.699Z,3.60
2018-11-21T20:08:12.941Z,3.60
2018-11-21T20:11:05.812Z,3.70
2018-11-21T20:14:07.530Z,3.60
2018-11-21T20:16:55.931Z,3.60
2018-11-21T20:19:28.029Z,3.60
2018-11-21T20:22:02.044Z,3.60
2018-11-21T20:24:31.372Z,3.60
2018-11-21T20:27:26.867Z,3.60
2018-11-21T20:30:02.278Z,3.60
2018-11-21T20:32:53.877Z,3.60
2018-11-21T20:35:21.374Z,3.60
2018-11-21T20:38:14.681Z,3.60
2018-11-21T20:40:56.394Z,3.60
2018-11-21T20:46:49.949Z,3.60
2018-11-21T20:52:28.782Z,3.60
2018-11-21T20:55:18.117Z,3.60
2018-11-21T20:58:10.638Z,3.60
2018-11-21T21:00:52.201Z,3.60
2018-11-21T21:03:34.019Z,3.60
2018-11-21T21:06:29.937Z,3.60
2018-11-21T21:09:14.143Z,3.60
2018-11-21T21:11:55.097Z,3.60
2018-11-21T21:14:35.927Z,3.60
2018-11-21T21:17:17.080Z,3.50
2018-11-21T21:22:56.465Z,3.60
2018-11-21T21:25:50.342Z,3.60
2018-11-21T21:31:34.765Z,3.50
2018-11-21T21:34:19.082Z,3.50
2018-11-21T21:36:52.659Z,3.60
2018-11-21T21:39:26.399Z,3.50
2018-11-21T21:42:33.834Z,3.50
2018-11-21T21:45:21.612Z,3.50
2018-11-21T21:47:49.888Z,3.50
2018-11-21T21:50:39.002Z,3.50
2018-11-21T21:53:42.069Z,3.50
2018-11-21T21:56:21.073Z,3.50
2018-11-21T22:02:03.001Z,3.50
2018-11-21T22:04:44.286Z,3.50
2018-11-21T22:13:06.229Z,3.50
2018-11-21T22:15:48.854Z,3.50
2018-11-21T22:18:50.841Z,3.50
2018-11-21T22:24:09.692Z,3.40
2018-11-21T22:26:57.531Z,3.40
2018-11-21T22:29:27.100Z,3.40
2018-11-21T22:32:19.364Z,3.50
2018-11-21T22:34:51.438Z,3.50
2018-11-21T22:37:41.920Z,3.40
2018-11-21T22:40:13.839Z,3.40
2018-11-21T22:45:33.476Z,3.50
2018-11-21T22:48:24.702Z,3.40
2018-11-21T22:51:01.858Z,3.40
2018-11-21T22:53:33.142Z,3.50
2018-11-21T22:56:03.821Z,3.40
2018-11-21T22:58:33.468Z,3.40
2018-11-21T23:01:03.259Z,3.40
2018-11-21T23:03:33.367Z,3.40
2018-11-21T23:06:06.912Z,3.40
2018-11-21T23:08:36.403Z,3.40
2018-11-21T23:11:05.870Z,3.40
2018-11-21T23:13:35.011Z,3.40
2018-11-21T23:16:04.762Z,3.40
2018-11-21T23:18:37.824Z,3.40
2018-11-21T23:21:08.837Z,3.40
2018-11-21T23:23:43.961Z,3.40
2018-11-21T23:26:14.105Z,3.40
2018-11-21T23:28:43.443Z,3.40
2018-11-21T23:31:13.425Z,3.40
2018-11-21T23:33:45.327Z,3.30
2018-11-21T23:36:21.422Z,3.30
2018-11-21T23:38:52.827Z,3.30
2018-11-21T23:41:24.277Z,3.30
2018-11-21T23:44:11.465Z,3.40
2018-11-21T23:46:37.252Z,3.30
2018-11-21T23:49:30.718Z,3.40
2018-11-21T23:52:08.365Z,3.40
2018-11-21T23:54:39.545Z,3.30
2018-11-21T23:57:16.597Z,3.40
